createdAt,value
2023-05-03T01:34:44.877Z,9.763563
2023-05-03T01:35:44.859Z,9.764171
2023-05-03T01:36:44.852Z,9.762922
2023-05-03T01:37:44.845Z,9.762425
2023-05-03T01:38:44.831Z,9.762513
2023-05-03T01:39:44.856Z,9.762513
2023-05-03T01:40:44.815Z,9.762925
2023-05-03T01:41:44.804Z,9.763004
2023-05-03T01:42:44.794Z,9.763004
2023-05-03T01:43:44.783Z,9.762691
2023-05-03T01:44:44.785Z,9.762691
2023-05-03T01:45:44.772Z,9.763003
2023-05-03T01:46:44.753Z,9.763249
2023-05-03T01:47:44.770Z,9.763050
2023-05-03T01:48:44.746Z,9.762504
2023-05-03T01:49:44.756Z,9.762679
2023-05-03T01:50:44.751Z,9.762741
2023-05-03T01:51:44.704Z,9.763016
2023-05-03T01:52:44.692Z,9.763421
2023-05-03T01:53:44.681Z,9.761745
2023-05-03T01:54:44.709Z,9.761745
2023-05-03T01:55:44.702Z,9.761745
2023-05-03T01:56:44.663Z,9.761745
2023-05-03T01:57:44.650Z,9.762746
2023-05-03T01:58:44.647Z,9.762607
2023-05-03T01:59:44.661Z,9.762936
2023-05-03T02:00:44.641Z,9.762850
2023-05-03T02:01:44.676Z,9.762748
2023-05-03T02:02:44.626Z,9.762735
2023-05-03T02:03:45.619Z,9.763340
2023-05-03T02:04:44.607Z,9.762696
2023-05-03T02:05:44.584Z,9.762505
2023-05-03T02:06:44.635Z,9.762804
2023-05-03T02:07:44.553Z,9.762905
2023-05-03T02:08:44.543Z,9.762908
2023-05-03T02:09:44.538Z,9.762645
2023-05-03T02:10:44.516Z,9.762799
2023-05-03T02:11:44.514Z,9.762808
2023-05-03T02:12:44.503Z,9.762650
2023-05-03T02:13:44.492Z,9.762692
2023-05-03T02:14:44.488Z,9.762700
2023-05-03T02:15:44.470Z,9.762852
2023-05-03T02:16:44.507Z,9.762977
2023-05-03T02:17:44.475Z,9.762868
2023-05-03T02:18:44.443Z,9.762751
2023-05-03T02:19:44.456Z,9.762440
2023-05-03T02:20:44.433Z,9.759385
2023-05-03T02:21:44.408Z,9.758190
2023-05-03T02:22:44.398Z,9.759677
2023-05-03T02:23:44.402Z,9.763768
2023-05-03T02:24:44.409Z,9.762857
2023-05-03T02:25:44.382Z,9.762813
2023-05-03T02:26:44.378Z,9.762663
2023-05-03T02:27:44.354Z,9.762637
2023-05-03T02:28:44.346Z,9.762296
2023-05-03T02:29:44.348Z,9.762445
2023-05-03T02:30:44.375Z,9.762444
2023-05-03T02:31:44.318Z,9.762174
2023-05-03T02:32:44.351Z,9.762531
2023-05-03T02:33:44.295Z,9.761844
2023-05-03T02:34:44.299Z,9.761605
2023-05-03T02:35:44.287Z,9.761605
2023-05-03T02:36:44.263Z,9.762780
2023-05-03T02:37:44.259Z,9.762617
2023-05-03T02:38:44.255Z,9.762429
2023-05-03T02:39:44.253Z,9.762692
2023-05-03T02:40:44.248Z,9.762666
2023-05-03T02:41:44.229Z,9.762716
2023-05-03T02:42:44.218Z,9.762896
2023-05-03T02:43:44.195Z,9.762745
2023-05-03T02:44:44.217Z,9.762602
2023-05-03T02:45:44.189Z,9.763041
2023-05-03T02:46:44.203Z,9.762668
2023-05-03T02:47:44.204Z,9.765743
2023-05-03T02:48:44.161Z,9.772363
2023-05-03T02:49:44.168Z,9.772363
2023-05-03T02:50:44.136Z,9.772363
2023-05-03T02:51:44.128Z,9.772363
2023-05-03T02:52:44.124Z,9.772363
2023-05-03T02:53:44.116Z,9.772363
2023-05-03T02:54:44.114Z,9.772363
2023-05-03T02:55:44.093Z,9.772363
2023-05-03T02:56:44.079Z,9.772363
2023-05-03T02:57:44.068Z,9.772363
2023-05-03T02:58:44.071Z,9.772363
2023-05-03T02:59:44.060Z,9.772363
2023-05-03T03:00:44.048Z,9.772363
2023-05-03T03:01:44.106Z,9.772363
2023-05-03T03:02:44.168Z,9.772363
2023-05-03T03:03:44.101Z,9.772363
2023-05-03T03:04:44.025Z,9.772363
2023-05-03T03:05:43.990Z,9.772363
2023-05-03T03:06:44.014Z,9.772363
2023-05-03T03:07:44.987Z,9.772363
2023-05-03T03:08:43.967Z,9.772363
2023-05-03T03:09:43.955Z,9.772363
2023-05-03T03:10:43.961Z,9.772363
2023-05-03T03:11:43.933Z,9.772363
2023-05-03T03:12:43.943Z,9.772363
2023-05-03T03:13:43.922Z,9.772363
2023-05-03T03:14:43.912Z,9.772363
2023-05-03T03:15:43.935Z,9.772363
2023-05-03T03:16:43.887Z,9.772363
2023-05-03T03:17:43.953Z,9.772363
2023-05-03T03:18:43.867Z,9.772363
2023-05-03T03:19:43.865Z,9.772363
2023-05-03T03:20:43.872Z,9.772363
2023-05-03T03:21:43.839Z,9.772363
2023-05-03T03:22:43.842Z,9.772363
2023-05-03T03:23:43.821Z,9.772363
2023-05-03T03:24:43.809Z,9.772363
2023-05-03T03:25:43.795Z,9.772363
2023-05-03T03:26:43.789Z,9.772363
2023-05-03T03:27:43.787Z,9.772363
2023-05-03T03:28:43.774Z,9.772363
2023-05-03T03:29:43.761Z,9.772363
2023-05-03T03:30:43.773Z,9.772363
2023-05-03T03:31:43.791Z,9.772363
2023-05-03T03:32:43.832Z,9.772363
2023-05-03T03:33:43.717Z,9.772363
2023-05-03T03:34:43.742Z,9.772363
2023-05-03T03:35:43.704Z,9.772363
2023-05-03T03:36:43.699Z,9.772363
2023-05-03T03:37:43.690Z,9.772363
2023-05-03T03:38:43.682Z,9.772363
2023-05-03T03:39:43.663Z,9.772363
2023-05-03T03:40:43.669Z,9.772363
2023-05-03T03:41:43.644Z,9.772363
2023-05-03T03:42:43.643Z,9.772363
2023-05-03T03:43:43.622Z,9.772363
2023-05-03T03:44:43.650Z,9.772363
2023-05-03T03:45:43.607Z,9.772363
2023-05-03T03:46:43.679Z,9.772363
2023-05-03T03:47:43.612Z,9.772363
2023-05-03T03:48:43.575Z,9.772363
2023-05-03T03:49:43.591Z,9.772363
2023-05-03T03:50:43.563Z,9.772363
2023-05-03T03:51:43.556Z,9.772363
2023-05-03T03:52:43.549Z,9.772363
2023-05-03T03:53:43.551Z,9.772363
2023-05-03T03:54:43.537Z,9.772363
2023-05-03T03:55:43.514Z,9.772363
2023-05-03T03:56:43.538Z,9.772363
2023-05-03T03:57:43.496Z,9.772363
2023-05-03T03:58:43.500Z,9.772363
2023-05-03T03:59:43.496Z,9.772363
2023-05-03T04:00:43.478Z,9.772363
2023-05-03T04:01:43.494Z,9.772363
2023-05-03T04:02:43.529Z,9.772363
2023-05-03T04:03:43.553Z,9.772363
2023-05-03T04:04:43.445Z,9.772363
2023-05-03T04:05:43.418Z,9.772363
2023-05-03T04:06:43.464Z,9.772363
2023-05-03T04:07:43.424Z,9.772363
2023-05-03T04:08:43.417Z,9.772363
2023-05-03T04:09:43.411Z,9.772363
2023-05-03T04:10:43.382Z,9.772363
2023-05-03T04:11:43.369Z,9.772363
2023-05-03T04:12:43.352Z,9.772363
2023-05-03T04:13:43.362Z,9.772363
2023-05-03T04:14:43.345Z,9.772363
2023-05-03T04:15:43.344Z,9.772363
2023-05-03T04:16:43.368Z,9.772363
2023-05-03T04:17:43.360Z,9.772363
2023-05-03T04:18:43.299Z,9.772363
2023-05-03T04:19:43.281Z,9.772363
2023-05-03T04:20:43.301Z,9.772363
2023-05-03T04:21:43.271Z,9.772363
2023-05-03T04:22:43.260Z,9.772363
2023-05-03T04:23:43.241Z,9.772363
2023-05-03T04:24:43.231Z,9.772363
2023-05-03T04:25:43.241Z,9.772363
2023-05-03T04:26:43.213Z,9.772363
2023-05-03T04:27:43.216Z,9.772363
2023-05-03T04:28:43.207Z,9.772363
2023-05-03T04:29:43.197Z,9.772363
2023-05-03T04:30:43.248Z,9.772363
2023-05-03T04:31:43.169Z,9.772363
2023-05-03T04:32:43.217Z,9.772363
2023-05-03T04:33:43.147Z,9.772363
2023-05-03T04:34:43.138Z,9.772363
2023-05-03T04:35:43.142Z,9.772363
2023-05-03T04:36:43.112Z,9.772363
2023-05-03T04:37:43.108Z,9.772363
2023-05-03T04:38:43.116Z,9.772363
2023-05-03T04:39:43.092Z,9.772363
2023-05-03T04:40:43.095Z,9.772363
2023-05-03T04:41:43.086Z,9.772363
2023-05-03T04:42:43.069Z,9.772363
2023-05-03T04:43:43.070Z,9.772363
2023-05-03T04:44:43.055Z,9.772363
2023-05-03T04:45:43.031Z,9.772363
2023-05-03T04:46:43.054Z,9.772363
2023-05-03T04:47:43.077Z,9.772363
2023-05-03T04:48:43.004Z,9.772363
2023-05-03T04:49:42.983Z,9.772363
2023-05-03T04:50:42.990Z,9.772363
2023-05-03T04:51:42.983Z,9.772363
2023-05-03T04:52:42.967Z,9.772363
2023-05-03T04:53:42.956Z,9.772363
2023-05-03T04:54:42.951Z,9.772363
2023-05-03T04:55:42.961Z,9.772363
2023-05-03T04:56:43.002Z,9.772363
2023-05-03T04:57:42.930Z,9.772363
2023-05-03T04:58:42.914Z,9.772363
2023-05-03T04:59:42.891Z,9.772363
2023-05-03T05:00:42.877Z,9.772363
2023-05-03T05:01:42.981Z,9.772363
2023-05-03T05:02:42.889Z,9.772363
2023-05-03T05:03:42.965Z,9.772363
2023-05-03T05:04:42.840Z,9.772363
2023-05-03T05:05:42.832Z,9.772363
2023-05-03T05:06:42.829Z,9.772363
2023-05-03T05:07:42.887Z,9.772363
2023-05-03T05:08:42.791Z,9.772363
2023-05-03T05:09:42.786Z,9.772363
2023-05-03T05:10:42.789Z,9.772363
2023-05-03T05:11:42.762Z,9.772363
2023-05-03T05:12:42.751Z,9.772363
2023-05-03T05:13:42.750Z,9.772363
2023-05-03T05:14:42.742Z,9.772363
2023-05-03T05:15:42.729Z,9.772363
2023-05-03T05:16:42.774Z,9.772363
2023-05-03T05:17:42.784Z,9.772363
2023-05-03T05:18:42.684Z,9.772363
2023-05-03T05:19:42.690Z,9.772363
2023-05-03T05:20:42.673Z,9.772363
2023-05-03T05:21:42.674Z,9.772363
2023-05-03T05:22:42.642Z,9.772363
2023-05-03T05:23:42.728Z,9.772363
2023-05-03T05:24:42.631Z,9.772363
2023-05-03T05:25:42.633Z,9.772363
2023-05-03T05:26:42.626Z,9.772363
2023-05-03T05:27:42.607Z,9.772363
2023-05-03T05:28:42.597Z,9.772363
2023-05-03T05:29:42.598Z,9.772363
2023-05-03T05:30:42.572Z,9.772363
2023-05-03T05:31:42.602Z,9.772363
2023-05-03T05:32:42.601Z,9.772363
2023-05-03T05:33:42.532Z,9.772363
2023-05-03T05:34:45.557Z,9.772363
2023-05-03T05:35:43.528Z,9.772363
2023-05-03T05:36:42.536Z,9.772363
2023-05-03T05:37:42.491Z,9.772363
2023-05-03T05:38:42.491Z,9.772363
2023-05-03T05:39:42.556Z,9.772363
2023-05-03T05:40:42.485Z,9.772363
2023-05-03T05:41:42.545Z,9.772363
2023-05-03T05:42:42.478Z,9.772363
2023-05-03T05:43:42.455Z,9.772363
2023-05-03T05:44:42.452Z,9.772363
2023-05-03T05:45:42.476Z,9.772363
2023-05-03T05:46:42.496Z,9.772363
2023-05-03T05:47:42.453Z,9.772363
2023-05-03T05:48:42.419Z,9.772363
2023-05-03T05:49:42.403Z,9.772363
2023-05-03T05:50:42.380Z,9.772363
2023-05-03T05:51:42.409Z,9.772363
2023-05-03T05:52:42.380Z,9.772363
2023-05-03T05:53:42.356Z,9.772363
2023-05-03T05:54:42.347Z,9.772363
2023-05-03T05:55:42.352Z,9.772363
2023-05-03T05:56:42.332Z,9.772363
2023-05-03T05:57:42.344Z,9.772363
2023-05-03T05:58:42.322Z,9.772363
2023-05-03T05:59:42.318Z,9.772363
2023-05-03T06:00:42.283Z,9.772363
2023-05-03T06:01:42.294Z,9.772363
2023-05-03T06:02:42.417Z,9.772363
2023-05-03T06:03:42.249Z,9.772363
2023-05-03T06:04:42.292Z,9.772363
2023-05-03T06:05:42.551Z,9.772363
2023-05-03T06:06:42.251Z,9.772363
2023-05-03T06:07:42.195Z,9.772363
2023-05-03T06:08:42.186Z,9.772363
2023-05-03T06:09:42.208Z,9.772363
2023-05-03T06:10:42.288Z,9.772363
2023-05-03T06:11:42.173Z,9.772363
2023-05-03T06:12:42.161Z,9.772363
2023-05-03T06:13:42.157Z,9.772363
2023-05-03T06:14:48.963Z,9.772363
2023-05-03T06:15:44.207Z,9.772363
2023-05-03T06:16:42.187Z,9.772363
2023-05-03T06:17:42.245Z,9.772363
2023-05-03T06:18:42.201Z,9.772363
2023-05-03T06:19:44.412Z,9.772363
2023-05-03T06:20:42.148Z,9.772363
2023-05-03T06:21:42.112Z,9.772363
2023-05-03T06:22:42.125Z,9.772363
2023-05-03T06:23:42.083Z,9.772363
2023-05-03T06:24:42.116Z,9.772363
2023-05-03T06:25:42.078Z,9.772363
2023-05-03T06:26:42.098Z,9.772363
2023-05-03T06:27:42.075Z,9.772363
2023-05-03T06:28:42.062Z,9.772363
2023-05-03T06:29:42.029Z,9.772363
2023-05-03T06:30:42.144Z,9.772363
2023-05-03T06:31:42.101Z,9.772363
2023-05-03T06:32:42.061Z,9.772363
2023-05-03T06:33:42.022Z,9.772363
2023-05-03T06:34:41.991Z,9.772363
2023-05-03T06:35:41.955Z,9.772363
2023-05-03T06:36:41.997Z,9.772363
2023-05-03T06:37:41.919Z,9.772363
2023-05-03T06:38:41.924Z,9.772363
2023-05-03T06:39:41.943Z,9.772363
2023-05-03T06:40:41.949Z,9.772363
2023-05-03T06:41:41.914Z,9.772363
2023-05-03T06:42:41.845Z,9.772363
2023-05-03T06:43:41.949Z,9.772363
2023-05-03T06:44:41.829Z,9.772363
2023-05-03T06:45:41.828Z,9.772363
2023-05-03T06:46:41.846Z,9.772363
2023-05-03T06:47:41.838Z,9.772363
2023-05-03T06:48:41.842Z,9.772363
2023-05-03T06:49:41.768Z,9.772363
2023-05-03T06:50:41.763Z,9.772363
2023-05-03T06:51:41.773Z,9.772363
2023-05-03T06:52:41.735Z,9.772363
2023-05-03T06:53:41.731Z,9.772363
2023-05-03T06:54:41.741Z,9.772363
2023-05-03T06:55:41.720Z,9.772363
2023-05-03T06:56:41.711Z,9.772363
2023-05-03T06:57:41.749Z,9.772363
2023-05-03T06:58:41.703Z,9.772363
2023-05-03T06:59:42.620Z,9.772363
2023-05-03T07:00:41.686Z,9.772363
2023-05-03T07:01:41.757Z,9.772363
2023-05-03T07:02:41.780Z,9.772363
2023-05-03T07:03:42.097Z,9.772363
2023-05-03T07:04:42.652Z,9.772363
2023-05-03T07:05:41.670Z,9.772363
2023-05-03T07:06:55.394Z,9.772363
2023-05-03T07:07:43.628Z,9.772363
2023-05-03T07:08:41.626Z,9.772363
2023-05-03T07:09:43.501Z,9.772363
2023-05-03T07:10:42.591Z,9.772363
2023-05-03T07:11:41.604Z,9.772363
2023-05-03T07:12:41.618Z,9.772363
2023-05-03T07:13:41.573Z,9.772363
2023-05-03T07:14:41.590Z,9.772363
2023-05-03T07:15:41.632Z,9.772363
2023-05-03T07:16:41.571Z,9.772363
2023-05-03T07:17:41.586Z,9.772363
2023-05-03T07:18:42.563Z,9.772363
2023-05-03T07:19:41.530Z,9.772363
2023-05-03T07:20:41.517Z,9.772363
2023-05-03T07:21:41.495Z,9.772363
2023-05-03T07:22:41.509Z,9.772363
2023-05-03T07:23:41.489Z,9.772363
2023-05-03T07:24:41.484Z,9.772363
2023-05-03T07:25:41.450Z,9.772363
2023-05-03T07:26:43.642Z,9.772363
2023-05-03T07:27:41.463Z,9.772363
2023-05-03T07:28:41.454Z,9.772363
2023-05-03T07:29:41.530Z,9.772363
2023-05-03T07:30:41.390Z,9.772363
2023-05-03T07:31:41.715Z,9.772363
2023-05-03T07:32:41.467Z,9.772363
2023-05-03T07:33:41.489Z,9.772363
2023-05-03T07:34:41.344Z,9.772363
2023-05-03T07:35:41.346Z,9.772363
2023-05-03T07:36:41.421Z,9.772363
2023-05-03T07:37:41.340Z,9.772363
2023-05-03T07:38:41.356Z,9.772363
2023-05-03T07:39:41.331Z,9.772363
2023-05-03T07:40:41.305Z,9.772363
2023-05-03T07:41:41.326Z,9.772363
2023-05-03T07:42:41.274Z,9.772363
2023-05-03T07:43:41.525Z,9.772363
2023-05-03T07:44:41.291Z,9.772363
2023-05-03T07:45:41.322Z,9.772363
2023-05-03T07:46:41.269Z,9.772363
2023-05-03T07:47:41.287Z,9.772363
2023-05-03T07:48:42.708Z,9.772363
2023-05-03T07:49:41.242Z,9.772363
2023-05-03T07:50:41.235Z,9.772363
2023-05-03T07:51:41.215Z,9.772363
2023-05-03T07:52:41.198Z,9.772363
2023-05-03T07:53:41.178Z,9.772363
2023-05-03T07:54:41.178Z,9.772363
2023-05-03T07:55:41.185Z,9.772363
2023-05-03T07:56:41.142Z,9.772363
2023-05-03T07:57:41.170Z,9.772363
2023-05-03T07:58:42.460Z,9.772363
2023-05-03T07:59:42.125Z,9.772363
2023-05-03T08:00:41.130Z,9.772363
2023-05-03T08:01:41.119Z,9.772363
2023-05-03T08:02:41.281Z,9.772363
2023-05-03T08:03:41.327Z,9.772363
2023-05-03T08:04:41.334Z,9.772363
2023-05-03T08:05:41.141Z,9.772363
2023-05-03T08:06:41.158Z,9.772363
2023-05-03T08:07:41.056Z,9.772363
2023-05-03T08:08:41.014Z,9.772363
2023-05-03T08:09:41.030Z,9.772363
2023-05-03T08:10:41.046Z,9.772363
2023-05-03T08:11:43.767Z,9.772363
2023-05-03T08:12:41.026Z,9.772363
2023-05-03T08:13:40.990Z,9.772363
2023-05-03T08:14:40.961Z,9.772363
2023-05-03T08:15:41.005Z,9.772363
2023-05-03T08:16:41.014Z,9.772363
2023-05-03T08:17:40.965Z,9.772363
2023-05-03T08:18:40.944Z,9.772363
2023-05-03T08:19:41.125Z,9.772363
2023-05-03T08:20:40.921Z,9.772363
2023-05-03T08:21:40.911Z,9.772363
2023-05-03T08:22:40.872Z,9.772363
2023-05-03T08:23:40.887Z,9.772363
2023-05-03T08:24:40.867Z,9.772363
2023-05-03T08:25:40.861Z,9.772363
2023-05-03T08:26:41.916Z,9.772363
2023-05-03T08:27:40.859Z,9.772363
2023-05-03T08:28:40.820Z,9.772363
2023-05-03T08:29:40.817Z,9.772363
2023-05-03T08:30:40.831Z,9.772363
2023-05-03T08:31:40.835Z,9.772363
2023-05-03T08:32:41.741Z,9.772363
2023-05-03T08:33:40.804Z,9.772363
2023-05-03T08:34:40.797Z,9.772363
2023-05-03T08:35:40.808Z,9.772363
2023-05-03T08:36:40.770Z,9.772363
2023-05-03T08:37:40.837Z,9.772363
2023-05-03T08:38:40.781Z,9.772363
2023-05-03T08:39:40.708Z,9.772363
2023-05-03T08:40:40.717Z,9.772363
2023-05-03T08:41:40.706Z,9.772363
2023-05-03T08:42:40.739Z,9.772363
2023-05-03T08:43:40.714Z,9.772363
2023-05-03T08:44:40.670Z,9.772363
2023-05-03T08:45:40.711Z,9.772363
2023-05-03T08:46:40.695Z,9.772363
2023-05-03T08:47:40.680Z,9.772363
2023-05-03T08:48:40.616Z,9.772363
2023-05-03T08:49:40.661Z,9.772363
2023-05-03T08:50:40.616Z,9.772363
2023-05-03T08:51:40.629Z,9.772363
2023-05-03T08:52:40.730Z,9.772363
2023-05-03T08:53:40.557Z,9.772363
2023-05-03T08:54:40.555Z,9.772363
2023-05-03T08:55:40.584Z,9.772363
2023-05-03T08:56:40.563Z,9.772363
2023-05-03T08:57:40.624Z,9.772363
2023-05-03T08:58:40.557Z,9.772363
2023-05-03T08:59:40.533Z,9.772363
2023-05-03T09:00:40.508Z,9.772363
2023-05-03T09:01:40.593Z,9.772363
2023-05-03T09:02:40.624Z,9.772363
2023-05-03T09:03:40.554Z,9.772363
2023-05-03T09:04:40.474Z,9.772363
2023-05-03T09:05:40.477Z,9.772363
2023-05-03T09:06:40.486Z,9.772363
2023-05-03T09:07:40.448Z,9.772363
2023-05-03T09:08:40.393Z,9.772363
2023-05-03T09:09:40.445Z,9.772363
2023-05-03T09:10:40.459Z,9.772363
2023-05-03T09:11:40.424Z,9.772363
2023-05-03T09:12:40.461Z,9.772363
2023-05-03T09:13:40.385Z,9.772363
2023-05-03T09:14:40.514Z,9.772363
2023-05-03T09:15:40.386Z,9.772363
2023-05-03T09:16:40.410Z,9.772363
2023-05-03T09:17:40.396Z,9.772363
2023-05-03T09:18:40.323Z,9.772363
2023-05-03T09:19:40.344Z,9.772363
2023-05-03T09:20:40.367Z,9.772363
2023-05-03T09:21:40.305Z,9.772363
2023-05-03T09:22:40.290Z,9.772363
2023-05-03T09:23:40.379Z,9.762896
2023-05-03T09:24:40.301Z,9.762893
2023-05-03T09:25:40.249Z,9.762765
2023-05-03T09:26:40.361Z,9.762765
2023-05-03T09:27:40.250Z,9.762372
2023-05-03T09:28:41.243Z,9.762154
2023-05-03T09:29:40.221Z,9.762131
2023-05-03T09:30:40.246Z,9.762815
2023-05-03T09:31:40.240Z,9.762940
2023-05-03T09:32:40.208Z,9.762801
2023-05-03T09:33:40.195Z,9.762788
2023-05-03T09:34:40.225Z,9.762877
2023-05-03T09:35:40.158Z,9.762861
2023-05-03T09:36:40.184Z,9.762659
2023-05-03T09:37:40.171Z,9.762615
2023-05-03T09:38:40.146Z,9.762816
2023-05-03T09:39:40.166Z,9.762703
2023-05-03T09:40:40.138Z,9.762654
2023-05-03T09:41:40.102Z,9.762426
2023-05-03T09:42:40.110Z,9.762059
2023-05-03T09:43:40.092Z,9.762648
2023-05-03T09:44:40.097Z,9.762801
2023-05-03T09:45:40.097Z,9.762686
2023-05-03T09:46:40.048Z,9.763188
2023-05-03T09:47:40.132Z,9.763032
2023-05-03T09:48:40.038Z,9.762817
2023-05-03T09:49:40.069Z,9.762855
2023-05-03T09:50:40.074Z,9.762677
2023-05-03T09:51:40.031Z,9.762928
2023-05-03T09:52:39.983Z,9.762939
2023-05-03T09:53:39.990Z,9.762870
2023-05-03T09:54:39.959Z,9.762831
2023-05-03T09:55:39.983Z,9.762783
2023-05-03T09:56:39.981Z,9.762881
2023-05-03T09:57:39.930Z,9.762956
2023-05-03T09:58:39.981Z,9.762968
2023-05-03T09:59:40.057Z,9.762812
2023-05-03T10:00:39.901Z,9.762718
2023-05-03T10:01:39.982Z,9.762856
2023-05-03T10:02:40.023Z,9.762857
2023-05-03T10:03:39.958Z,9.762809
2023-05-03T10:04:39.914Z,9.762676
2023-05-03T10:05:39.858Z,9.762643
2023-05-03T10:06:39.909Z,9.762745
2023-05-03T10:07:39.855Z,9.762803
2023-05-03T10:08:39.843Z,9.762779
2023-05-03T10:09:39.817Z,9.763246
2023-05-03T10:10:39.824Z,9.762830
2023-05-03T10:11:39.775Z,9.762396
2023-05-03T10:12:39.820Z,9.762213
2023-05-03T10:13:39.764Z,9.762633
2023-05-03T10:14:39.800Z,9.762578
2023-05-03T10:15:39.837Z,9.762600
2023-05-03T10:16:39.793Z,9.762567
2023-05-03T10:18:40.742Z,9.762782
2023-05-03T10:19:39.830Z,9.762679
2023-05-03T10:20:39.731Z,9.762579
2023-05-03T10:21:39.673Z,9.762655
2023-05-03T10:22:39.713Z,9.762287
2023-05-03T10:23:39.680Z,9.762642
2023-05-03T10:24:39.679Z,9.762732
2023-05-03T10:25:39.649Z,9.762791
2023-05-03T10:26:39.634Z,9.762417
2023-05-03T10:27:39.654Z,9.762612
2023-05-03T10:28:39.649Z,9.762613
2023-05-03T10:29:39.607Z,9.762689
2023-05-03T10:30:39.591Z,9.762626
2023-05-03T10:31:39.631Z,9.762725
2023-05-03T10:32:39.649Z,9.762507
2023-05-03T10:33:39.550Z,9.762586
2023-05-03T10:34:39.527Z,9.762733
2023-05-03T10:35:39.538Z,9.762929
2023-05-03T10:36:48.948Z,9.764036
2023-05-03T10:37:41.557Z,9.763878
2023-05-03T10:38:45.611Z,9.762776
2023-05-03T10:39:40.516Z,9.762802
2023-05-03T10:40:39.496Z,9.762811
2023-05-03T10:41:39.452Z,9.762858
2023-05-03T10:42:39.458Z,9.762876
2023-05-03T10:43:39.437Z,9.763088
2023-05-03T10:44:39.448Z,9.763011
2023-05-03T10:45:39.422Z,9.762644
2023-05-03T10:46:39.446Z,9.762946
2023-05-03T10:47:39.429Z,9.762801
2023-05-03T10:48:39.428Z,9.762938
2023-05-03T10:49:39.367Z,9.762797
2023-05-03T10:50:39.442Z,9.762735
2023-05-03T10:51:39.402Z,9.762631
2023-05-03T10:52:39.417Z,9.762589
2023-05-03T10:53:39.399Z,9.762667
2023-05-03T10:54:39.356Z,9.762939
2023-05-03T10:55:39.343Z,9.762777
2023-05-03T10:56:39.349Z,9.762752
2023-05-03T10:57:40.337Z,9.762805
2023-05-03T10:58:40.361Z,9.762866
2023-05-03T10:59:39.395Z,9.762746
2023-05-03T11:00:39.330Z,9.762996
2023-05-03T11:01:39.337Z,9.763056
2023-05-03T11:02:39.320Z,9.762679
2023-05-03T11:03:39.277Z,9.763390
2023-05-03T11:04:39.308Z,9.763340
2023-05-03T11:05:41.019Z,9.763454
2023-05-03T11:06:39.259Z,9.763055
2023-05-03T11:07:39.199Z,9.762347
2023-05-03T11:08:39.192Z,9.762990
2023-05-03T11:09:39.226Z,9.762680
2023-05-03T11:10:39.185Z,9.762710
2023-05-03T11:11:39.143Z,9.762747
2023-05-03T11:12:39.154Z,9.762705
2023-05-03T11:13:39.230Z,9.762721
2023-05-03T11:14:39.140Z,9.762754
2023-05-03T11:15:39.130Z,9.762978
2023-05-03T11:16:39.177Z,9.762817
2023-05-03T11:17:39.156Z,9.762641
2023-05-03T11:18:39.129Z,9.762487
2023-05-03T11:19:39.049Z,9.762487
2023-05-03T11:20:40.057Z,9.762787
2023-05-03T11:21:39.040Z,9.762841
2023-05-03T11:22:39.073Z,9.762830
2023-05-03T11:23:39.105Z,9.762679
2023-05-03T11:24:39.029Z,9.762566
2023-05-03T11:25:39.016Z,9.762748
2023-05-03T11:26:39.016Z,9.762967
2023-05-03T11:27:39.054Z,9.762785
2023-05-03T11:28:38.992Z,9.762617
2023-05-03T11:29:39.039Z,9.762313
2023-05-03T11:30:38.993Z,9.762364
2023-05-03T11:31:39.080Z,9.762390
2023-05-03T11:32:39.065Z,9.762337
2023-05-03T11:33:39.062Z,9.762455
2023-05-03T11:34:38.965Z,9.762609
2023-05-03T11:35:38.955Z,9.762609
2023-05-03T11:36:38.946Z,9.762865
2023-05-03T11:37:38.914Z,9.762240
2023-05-03T11:38:39.011Z,9.762686
2023-05-03T11:39:38.939Z,9.762793
2023-05-03T11:40:38.909Z,9.762898
2023-05-03T11:41:38.932Z,9.762676
2023-05-03T11:42:38.878Z,9.763291
2023-05-03T11:43:38.874Z,9.764287
2023-05-03T11:44:38.872Z,9.763346
2023-05-03T11:45:38.915Z,9.762877
2023-05-03T11:46:39.049Z,9.762796
2023-05-03T11:47:38.959Z,9.762874
2023-05-03T11:48:38.939Z,9.762335
2023-05-03T11:49:38.775Z,9.762464
2023-05-03T11:50:38.785Z,9.762613
2023-05-03T11:51:38.778Z,9.762724
2023-05-03T11:52:38.765Z,9.762799
2023-05-03T11:53:38.770Z,9.762716
2023-05-03T11:54:38.773Z,9.762729
2023-05-03T11:55:38.717Z,9.762720
2023-05-03T11:56:38.743Z,9.762465
2023-05-03T11:57:38.723Z,9.762482
2023-05-03T11:58:38.727Z,9.762473
2023-05-03T11:59:38.720Z,9.762409
2023-05-03T12:00:38.684Z,9.762726
2023-05-03T12:01:38.811Z,9.762477
2023-05-03T12:02:38.780Z,9.762761
2023-05-03T12:03:38.785Z,9.763049
2023-05-03T12:04:39.141Z,9.763114
2023-05-03T12:05:39.387Z,9.763114
2023-05-03T12:06:39.909Z,9.763114
2023-05-03T12:07:38.803Z,9.763114
2023-05-03T12:08:41.519Z,9.762289
2023-05-03T12:09:40.356Z,9.762446
2023-05-03T12:10:38.828Z,9.762407
2023-05-03T12:11:39.834Z,9.762459
2023-05-03T12:12:43.543Z,9.762362
2023-05-03T12:13:41.198Z,9.762573
2023-05-03T12:14:39.239Z,9.762661
2023-05-03T12:15:40.610Z,9.762918
2023-05-03T13:37:04.919Z,9.762866
2023-05-03T13:38:04.901Z,9.762580
2023-05-03T13:39:04.878Z,9.762489
2023-05-03T13:40:05.179Z,9.762489
2023-05-03T13:41:04.862Z,9.762489
2023-05-03T13:42:04.838Z,9.762489
2023-05-03T13:43:04.853Z,9.762489
2023-05-03T13:44:04.833Z,9.762489
2023-05-03T13:45:04.795Z,9.762592
2023-05-03T13:46:04.805Z,9.762494
2023-05-03T13:47:04.775Z,9.762727
2023-05-03T13:48:18.622Z,9.762519
2023-05-03T13:49:06.828Z,9.762861
2023-05-03T13:50:05.116Z,9.762734
2023-05-03T13:51:04.749Z,9.762853
2023-05-03T13:52:04.757Z,9.763152
2023-05-03T13:53:04.727Z,9.762752
2023-05-03T13:54:04.730Z,9.762525
2023-05-03T13:55:04.849Z,9.762604
2023-05-03T13:56:04.768Z,9.762734
2023-05-03T13:57:04.713Z,9.762589
2023-05-03T13:58:04.680Z,9.762733
2023-05-03T13:59:04.679Z,9.763224
2023-05-03T14:00:04.891Z,9.762203
2023-05-03T14:01:04.693Z,9.762388
2023-05-03T14:02:04.698Z,9.762248
2023-05-03T14:03:04.809Z,9.761749
2023-05-03T14:04:04.892Z,9.761818
2023-05-03T14:05:04.658Z,9.762411
2023-05-03T14:06:04.610Z,9.762411
2023-05-03T14:07:04.593Z,9.762583
2023-05-03T14:08:05.604Z,9.762921
2023-05-03T14:09:04.570Z,9.762757
2023-05-03T14:10:04.721Z,9.762693
2023-05-03T14:11:06.262Z,9.762192
2023-05-03T14:12:05.534Z,9.762529
2023-05-03T14:13:04.610Z,9.762566
2023-05-03T16:54:06.021Z,9.763449
2023-05-03T16:55:05.986Z,9.765343
2023-05-03T16:56:05.973Z,9.763209
2023-05-03T16:57:05.967Z,9.763253
2023-05-03T16:58:05.964Z,9.763253
2023-05-03T16:59:05.964Z,9.763253
2023-05-03T17:00:06.139Z,9.763325
2023-05-03T17:01:05.955Z,9.762936
2023-05-03T17:02:05.948Z,9.762936
2023-05-03T17:03:06.001Z,9.762936
2023-05-03T17:04:05.917Z,9.762936
2023-05-03T17:05:05.894Z,9.762936
2023-05-03T17:06:05.871Z,9.762936
2023-05-03T17:07:05.871Z,9.762936
2023-05-03T17:08:05.863Z,9.762936
2023-05-03T17:09:05.866Z,9.762936
2023-05-03T17:10:06.154Z,9.762936
2023-05-03T17:11:15.132Z,9.762936
2023-05-03T17:12:05.817Z,9.762936
2023-05-03T17:13:05.849Z,9.762936
2023-05-03T17:14:05.829Z,9.762936
2023-05-03T17:15:06.138Z,9.762936
2023-05-03T17:16:05.972Z,9.762936
2023-05-03T17:17:05.856Z,9.762936
2023-05-03T17:18:05.785Z,9.762936
2023-05-03T17:19:05.762Z,9.762936
2023-05-03T17:20:06.054Z,9.762936